createdAt,value
2019-01-19T00:01:50.921Z,-3.20
2019-01-19T00:07:20.528Z,-3.20
2019-01-19T00:10:01.745Z,-3.20
2019-01-19T00:12:44.545Z,-3.20
2019-01-19T00:15:35.198Z,-3.20
2019-01-19T00:18:17.908Z,-3.20
2019-01-19T00:20:59.261Z,-3.30
2019-01-19T00:23:38.737Z,-3.30
2019-01-19T00:26:20.222Z,-3.30
2019-01-19T00:29:01.611Z,-3.30
2019-01-19T00:31:42.739Z,-3.30
2019-01-19T00:34:23.742Z,-3.30
2019-01-19T00:37:04.323Z,-3.30
2019-01-19T00:39:45.033Z,-3.30
2019-01-19T00:42:26.557Z,-3.30
2019-01-19T00:45:07.282Z,-3.30
2019-01-19T00:47:49.247Z,-3.30
2019-01-19T00:50:30.454Z,-3.30
2019-01-19T00:56:27.208Z,-3.40
2019-01-19T00:59:08.511Z,-3.40
2019-01-19T01:01:52.908Z,-3.40
2019-01-19T01:04:32.543Z,-3.40
2019-01-19T01:07:16.889Z,-3.50
2019-01-19T01:09:58.333Z,-3.50
2019-01-19T01:16:30.070Z,-3.40
2019-01-19T01:19:14.133Z,-3.40
2019-01-19T01:21:55.608Z,-3.50
2019-01-19T01:24:36.299Z,-3.50
2019-01-19T01:27:17.434Z,-3.40
2019-01-19T01:30:00.426Z,-3.40
2019-01-19T01:35:43.488Z,-3.50
2019-01-19T01:38:52.441Z,-3.50
2019-01-19T01:41:36.696Z,-3.50
2019-01-19T01:44:21.145Z,-3.40
2019-01-19T01:47:02.691Z,-3.40
2019-01-19T01:49:43.279Z,-3.40
2019-01-19T01:55:14.838Z,-3.40
2019-01-19T01:58:02.444Z,-3.40
2019-01-19T02:00:56.605Z,-3.40
2019-01-19T02:03:58.916Z,-3.50
2019-01-19T02:06:42.899Z,-3.50
2019-01-19T02:09:50.406Z,-3.50
2019-01-19T02:12:31.570Z,-3.50
2019-01-19T02:18:06.263Z,-3.50
2019-01-19T02:23:28.529Z,-3.50
2019-01-19T02:26:36.033Z,-3.50
2019-01-19T02:29:16.596Z,-3.60
2019-01-19T02:31:59.731Z,-3.60
2019-01-19T02:34:43.634Z,-3.70
2019-01-19T02:40:37.417Z,-3.70
2019-01-19T02:43:44.719Z,-3.70
2019-01-19T02:46:29.188Z,-3.70
2019-01-19T02:51:59.251Z,-3.80
2019-01-19T02:54:40.191Z,-3.90
2019-01-19T02:57:47.664Z,-3.90
2019-01-19T03:00:40.850Z,-4.00
2019-01-19T03:03:37.148Z,-4.00
2019-01-19T03:09:06.428Z,-4.00
2019-01-19T03:14:36.362Z,-4.00
2019-01-19T03:17:17.234Z,-4.00
2019-01-19T03:19:57.823Z,-3.90
2019-01-19T03:25:28.037Z,-3.90
2019-01-19T03:28:09.173Z,-3.90
2019-01-19T03:30:55.949Z,-4.00
2019-01-19T03:36:38.943Z,-4.00
2019-01-19T03:39:46.571Z,-3.90
2019-01-19T03:42:54.023Z,-3.80
2019-01-19T03:48:34.663Z,-3.80
2019-01-19T03:51:15.862Z,-3.90
2019-01-19T03:56:46.611Z,-4.00
2019-01-19T03:59:27.407Z,-4.00
2019-01-19T04:02:08.860Z,-3.90
2019-01-19T04:07:39.339Z,-4.00
2019-01-19T04:10:19.066Z,-3.90
2019-01-19T04:13:00.142Z,-3.90
2019-01-19T04:18:25.484Z,-4.00
2019-01-19T04:21:07.257Z,-4.00
2019-01-19T04:23:48.781Z,-4.00
2019-01-19T04:26:30.293Z,-4.10
2019-01-19T04:29:10.911Z,-4.20
2019-01-19T04:31:52.071Z,-4.20
2019-01-19T04:34:32.831Z,-4.30
2019-01-19T04:37:14.244Z,-4.30
2019-01-19T04:39:55.093Z,-4.30
2019-01-19T04:42:36.914Z,-4.20
2019-01-19T04:45:18.216Z,-4.20
2019-01-19T04:47:47.368Z,-4.20
2019-01-19T04:50:35.650Z,-4.20
2019-01-19T04:53:23.333Z,-4.20
2019-01-19T04:55:52.508Z,-4.20
2019-01-19T04:58:41.001Z,-4.30
2019-01-19T05:01:22.798Z,-4.30
2019-01-19T05:06:49.219Z,-4.30
2019-01-19T05:09:18.448Z,-4.30
2019-01-19T05:11:47.569Z,-4.30
2019-01-19T05:14:35.885Z,-4.30
2019-01-19T05:17:17.346Z,-4.30
2019-01-19T05:19:46.631Z,-4.30
2019-01-19T05:22:15.791Z,-4.30
2019-01-19T05:25:04.355Z,-4.30
2019-01-19T05:27:45.680Z,-4.40
2019-01-19T05:30:20.182Z,-4.40
2019-01-19T05:33:08.566Z,-4.40
2019-01-19T05:35:56.962Z,-4.40
2019-01-19T05:38:37.733Z,-4.40
2019-01-19T05:41:06.894Z,-4.40
2019-01-19T05:43:55.155Z,-4.40
2019-01-19T05:46:43.533Z,-4.40
2019-01-19T05:49:12.710Z,-4.50
2019-01-19T05:52:01.129Z,-4.50
2019-01-19T05:54:52.183Z,-4.50
2019-01-19T05:57:33.653Z,-4.50
2019-01-19T06:00:15.007Z,-4.50
2019-01-19T06:02:55.504Z,-4.50
2019-01-19T06:05:38.649Z,-4.50
2019-01-19T06:08:19.715Z,-4.50
2019-01-19T06:11:02.526Z,-4.50
2019-01-19T06:16:26.318Z,-4.40
2019-01-19T06:19:08.063Z,-4.30
2019-01-19T06:21:56.420Z,-4.20
2019-01-19T06:24:38.054Z,-4.20
2019-01-19T06:27:22.666Z,-4.20
2019-01-19T06:30:03.536Z,-4.10
2019-01-19T06:32:44.522Z,-4.10
2019-01-19T06:35:25.175Z,-4.00
2019-01-19T06:38:05.738Z,-4.10
2019-01-19T06:40:46.771Z,-4.10
2019-01-19T06:43:27.611Z,-4.20
2019-01-19T06:46:08.111Z,-4.20
2019-01-19T06:48:49.222Z,-4.20
2019-01-19T06:51:30.048Z,-4.20
2019-01-19T06:54:11.162Z,-4.30
2019-01-19T06:56:52.580Z,-4.30
2019-01-19T06:59:33.831Z,-4.40
2019-01-19T07:02:14.469Z,-4.40
2019-01-19T07:04:55.565Z,-4.30
2019-01-19T07:07:24.788Z,-4.20
2019-01-19T07:10:15.008Z,-4.20
2019-01-19T07:12:56.143Z,-4.30
2019-01-19T07:15:36.827Z,-4.30
2019-01-19T07:18:17.551Z,-4.30
2019-01-19T07:20:59.223Z,-4.30
2019-01-19T07:23:39.844Z,-4.30
2019-01-19T07:26:21.367Z,-4.10
2019-01-19T07:29:04.272Z,-4.10
2019-01-19T07:31:33.546Z,-4.10
2019-01-19T07:34:21.814Z,-4.10
2019-01-19T07:37:12.500Z,-4.20
2019-01-19T07:39:53.651Z,-4.10
2019-01-19T07:42:35.713Z,-4.10
2019-01-19T07:45:16.990Z,-4.20
2019-01-19T07:47:58.474Z,-4.20
2019-01-19T07:50:38.934Z,-4.20
2019-01-19T07:53:19.820Z,-4.20
2019-01-19T07:56:00.512Z,-4.20
2019-01-19T07:58:41.680Z,-4.20
2019-01-19T08:01:23.178Z,-4.20
2019-01-19T08:03:52.475Z,-4.20
2019-01-19T08:06:41.019Z,-4.20
2019-01-19T08:09:10.237Z,-4.20
2019-01-19T08:11:58.528Z,-4.10
2019-01-19T08:14:40.103Z,-4.10
2019-01-19T08:17:21.037Z,-4.00
2019-01-19T08:19:50.227Z,-4.00
2019-01-19T08:22:38.415Z,-4.00
2019-01-19T08:25:58.308Z,-4.00
2019-01-19T08:28:29.265Z,-4.00
2019-01-19T08:30:58.625Z,-3.90
2019-01-19T08:33:48.195Z,-3.80
2019-01-19T08:36:29.630Z,-3.80
2019-01-19T08:39:10.633Z,-3.80
2019-01-19T08:41:39.916Z,-3.70
2019-01-19T08:47:11.185Z,-3.70
2019-01-19T08:49:59.467Z,-3.70
2019-01-19T08:52:28.843Z,-3.70
2019-01-19T08:55:10.215Z,-3.60
2019-01-19T08:57:51.603Z,-3.60
2019-01-19T09:00:33.023Z,-3.50
2019-01-19T09:03:13.958Z,-3.50
2019-01-19T09:05:55.519Z,-3.40
2019-01-19T09:08:37.033Z,-3.40
2019-01-19T09:35:02.078Z,-2.40
2019-01-19T10:17:05.499Z,-0.90
2019-01-19T10:19:49.221Z,-0.80
2019-01-19T10:22:36.371Z,-0.70
2019-01-19T10:25:09.429Z,-0.70
2019-01-19T10:28:05.277Z,-0.60
2019-01-19T10:33:37.234Z,-0.60
2019-01-19T10:36:19.156Z,-0.60
2019-01-19T10:39:03.244Z,-0.50
2019-01-19T10:44:35.998Z,-0.40
2019-01-19T10:47:17.680Z,-0.40
2019-01-19T10:52:51.306Z,-0.40
2019-01-19T10:58:26.842Z,-0.40
2019-01-19T11:04:29.748Z,-0.40
2019-01-19T11:09:37.273Z,-0.20
2019-01-19T11:12:18.607Z,-0.10
2019-01-19T11:18:05.205Z,-0.10
2019-01-19T11:23:19.543Z,0.00
2019-01-19T11:25:49.172Z,0.00
2019-01-19T11:31:47.825Z,0.10
2019-01-19T11:37:51.847Z,0.20
2019-01-19T11:49:53.144Z,0.10
2019-01-19T11:55:23.630Z,0.20
2019-01-19T12:06:48.444Z,0.40
2019-01-19T12:09:17.163Z,0.60
2019-01-19T12:12:04.826Z,0.60
2019-01-19T12:14:17.294Z,0.70
2019-01-19T12:19:50.121Z,0.70
2019-01-19T12:22:33.365Z,0.70
2019-01-19T12:25:05.133Z,0.60
2019-01-19T12:27:53.849Z,0.70
2019-01-19T12:30:40.720Z,0.70
2019-01-19T12:33:37.325Z,0.70
2019-01-19T12:39:09.293Z,0.80
2019-01-19T12:44:38.737Z,0.90
2019-01-19T12:50:07.259Z,0.90
2019-01-19T12:52:47.054Z,1.00
2019-01-19T12:55:17.356Z,1.00
2019-01-19T13:00:50.856Z,1.10
2019-01-19T13:06:20.279Z,1.20
2019-01-19T13:09:02.741Z,1.40
2019-01-19T13:11:44.142Z,1.40
2019-01-19T13:14:13.359Z,1.50
2019-01-19T13:17:20.788Z,1.50
2019-01-19T13:25:34.034Z,1.90
2019-01-19T13:31:25.460Z,2.10
2019-01-19T13:34:32.791Z,2.20
2019-01-19T13:37:16.955Z,2.40
2019-01-19T13:43:09.228Z,2.60
2019-01-19T13:46:00.287Z,2.70
2019-01-19T13:48:41.388Z,2.90
2019-01-19T13:51:22.670Z,2.80
2019-01-19T13:54:06.470Z,2.80
2019-01-19T13:56:47.199Z,2.80
2019-01-19T13:59:27.731Z,3.00
2019-01-19T14:02:08.780Z,3.00
2019-01-19T14:04:50.599Z,3.00
2019-01-19T14:07:32.361Z,2.80
2019-01-19T14:10:13.451Z,2.40
2019-01-19T14:12:54.761Z,2.00
2019-01-19T14:15:36.018Z,1.70
2019-01-19T14:18:17.313Z,1.40
2019-01-19T14:20:59.212Z,1.30
2019-01-19T14:23:40.331Z,1.10
2019-01-19T14:26:21.684Z,0.90
2019-01-19T14:29:29.136Z,0.80
2019-01-19T14:32:10.427Z,0.70
2019-01-19T14:35:18.181Z,0.60
2019-01-19T14:38:25.541Z,0.50
2019-01-19T14:44:09.790Z,0.30
2019-01-19T14:47:17.352Z,0.20
2019-01-19T14:49:58.645Z,0.10
2019-01-19T14:52:39.258Z,0.00
2019-01-19T14:55:22.552Z,-0.10
2019-01-19T14:58:17.026Z,-0.10
2019-01-19T15:01:01.286Z,-0.20
2019-01-19T15:03:41.790Z,-0.20
2019-01-19T15:06:22.892Z,-0.30
2019-01-19T15:09:30.381Z,-0.30
2019-01-19T15:12:37.748Z,-0.40
2019-01-19T15:15:45.149Z,-0.40
2019-01-19T15:18:26.674Z,-0.50
2019-01-19T15:21:07.506Z,-0.50
2019-01-19T15:23:48.071Z,-0.60
2019-01-19T15:26:43.440Z,-0.60
2019-01-19T15:29:50.866Z,-0.60
2019-01-19T15:32:58.238Z,-0.60
2019-01-19T15:35:38.928Z,-0.60
2019-01-19T15:38:19.746Z,-0.70
2019-01-19T15:41:01.270Z,-0.70
2019-01-19T15:46:51.439Z,-0.90
2019-01-19T15:49:58.897Z,-0.90
2019-01-19T15:52:40.321Z,-0.90
2019-01-19T15:55:21.237Z,-1.00
2019-01-19T15:58:05.418Z,-1.10
2019-01-19T16:00:46.358Z,-1.20
2019-01-19T16:03:27.206Z,-1.30
2019-01-19T16:06:08.704Z,-1.40
2019-01-19T16:08:49.926Z,-1.40
2019-01-19T16:11:57.602Z,-1.40
2019-01-19T16:15:05.076Z,-1.40
2019-01-19T16:17:46.566Z,-1.40
2019-01-19T16:20:28.201Z,-1.40
2019-01-19T16:23:08.767Z,-1.50
2019-01-19T16:25:51.196Z,-1.50
2019-01-19T16:28:44.152Z,-1.50
2019-01-19T16:31:51.585Z,-1.60
2019-01-19T16:34:59.084Z,-1.70
2019-01-19T16:38:07.135Z,-1.70
2019-01-19T16:44:20.797Z,-1.80
2019-01-19T16:47:42.137Z,-1.80
2019-01-19T16:52:55.674Z,-1.80
2019-01-19T16:58:15.560Z,-1.90
2019-01-19T17:01:21.961Z,-1.90
2019-01-19T17:04:02.645Z,-1.90
2019-01-19T17:06:43.448Z,-1.90
2019-01-19T17:09:23.227Z,-2.00
2019-01-19T17:12:04.177Z,-2.00
2019-01-19T17:14:44.834Z,-2.00
2019-01-19T17:17:25.625Z,-2.00
2019-01-19T17:20:06.774Z,-2.10
2019-01-19T17:23:14.840Z,-2.00
2019-01-19T17:25:56.952Z,-2.00
2019-01-19T17:28:40.515Z,-2.00
2019-01-19T17:31:21.730Z,-2.10
2019-01-19T17:37:28.160Z,-2.10
2019-01-19T17:40:35.729Z,-2.10
2019-01-19T17:43:16.753Z,-2.10
2019-01-19T17:46:04.591Z,-2.20
2019-01-19T17:49:11.942Z,-2.20
2019-01-19T17:51:52.863Z,-2.30
2019-01-19T17:54:33.501Z,-2.30
2019-01-19T17:57:20.129Z,-2.30
2019-01-19T18:00:21.341Z,-2.30
2019-01-19T18:03:00.810Z,-2.30
2019-01-19T18:09:07.516Z,-2.20
2019-01-19T18:14:43.937Z,-2.20
2019-01-19T18:17:25.199Z,-2.30
2019-01-19T18:20:08.915Z,-2.30
2019-01-19T18:23:16.962Z,-2.30
2019-01-19T18:28:50.145Z,-2.40
2019-01-19T18:37:51.658Z,-2.50
2019-01-19T18:40:58.961Z,-2.50
2019-01-19T18:46:55.373Z,-2.50
2019-01-19T18:50:02.813Z,-2.50
2019-01-19T18:59:44.448Z,-2.50
2019-01-19T19:02:31.307Z,-2.50
2019-01-19T19:08:05.009Z,-2.60
2019-01-19T19:13:41.450Z,-2.50
2019-01-19T19:19:13.719Z,-2.60
2019-01-19T19:24:49.390Z,-2.60
2019-01-19T19:30:24.966Z,-2.70
2019-01-19T19:35:59.830Z,-2.60
2019-01-19T19:38:46.260Z,-2.70
2019-01-19T19:44:19.074Z,-2.70
2019-01-19T19:49:52.629Z,-2.70
2019-01-19T19:52:27.878Z,-2.70
2019-01-19T19:55:11.155Z,-2.60
2019-01-19T20:00:46.627Z,-2.50
2019-01-19T20:06:18.870Z,-2.50
2019-01-19T20:08:48.688Z,-2.50
2019-01-19T20:11:37.152Z,-2.60
2019-01-19T20:14:06.576Z,-2.70
2019-01-19T20:16:54.960Z,-2.70
2019-01-19T20:22:30.074Z,-2.70
2019-01-19T20:28:01.935Z,-2.70
2019-01-19T20:33:34.639Z,-2.70
2019-01-19T20:39:08.129Z,-2.60
2019-01-19T20:41:52.390Z,-2.60
2019-01-19T20:47:25.176Z,-2.60
2019-01-19T20:52:58.685Z,-2.60
2019-01-19T20:58:33.423Z,-2.50
2019-01-19T21:04:06.218Z,-2.40
2019-01-19T21:06:50.713Z,-2.40
2019-01-19T21:12:25.544Z,-2.50
2019-01-19T21:18:01.287Z,-2.30
2019-01-19T21:23:34.040Z,-2.40
2019-01-19T21:26:19.328Z,-2.50
2019-01-19T21:29:02.977Z,-2.50
2019-01-19T21:34:35.777Z,-2.50
2019-01-19T21:37:22.337Z,-2.50
2019-01-19T21:42:56.022Z,-2.50
2019-01-19T21:48:14.240Z,-2.60
2019-01-19T21:51:02.549Z,-2.70
2019-01-19T21:53:49.242Z,-2.70
2019-01-19T21:59:22.739Z,-2.80
2019-01-19T22:04:56.227Z,-2.80
2019-01-19T22:07:42.825Z,-2.70
2019-01-19T22:13:16.565Z,-2.50
2019-01-19T22:18:48.970Z,-2.50
2019-01-19T22:24:24.164Z,-2.50
2019-01-19T22:29:55.921Z,-2.50
2019-01-19T22:32:25.226Z,-2.60
2019-01-19T22:35:13.752Z,-2.60
2019-01-19T22:38:02.079Z,-2.50
2019-01-19T22:43:37.535Z,-2.60
2019-01-19T22:49:12.662Z,-2.60
2019-01-19T22:54:45.395Z,-2.60
2019-01-19T22:57:14.797Z,-2.70
2019-01-19T23:00:03.608Z,-2.60
2019-01-19T23:02:48.665Z,-2.60
2019-01-19T23:05:32.934Z,-2.60
2019-01-19T23:11:05.739Z,-2.60
2019-01-19T23:13:34.913Z,-2.50
2019-01-19T23:16:23.296Z,-2.50
2019-01-19T23:19:11.737Z,-2.50
2019-01-19T23:24:46.945Z,-2.60
2019-01-19T23:30:05.582Z,-2.70
2019-01-19T23:32:54.015Z,-2.70
2019-01-19T23:35:38.245Z,-2.70
2019-01-19T23:41:13.855Z,-2.70
2019-01-19T23:46:46.673Z,-2.70
2019-01-19T23:49:15.810Z,-2.70
2019-01-19T23:52:04.210Z,-2.70
2019-01-19T23:54:48.662Z,-2.70
